sensor_id;sensor_type;location;lat;lon;timestamp;pressure;altitude;pressure_sealevel;temperature;humidity
21182;BME280;10749;46.296;7.524;2023-12-29T00:01:13;95318.00;;;8.60;47.85
21182;BME280;10749;46.296;7.524;2023-12-29T00:03:39;95312.75;;;8.60;48.01
21182;BME280;10749;46.296;7.524;2023-12-29T00:06:04;95310.94;;;8.61;48.04
21182;BME280;10749;46.296;7.524;2023-12-29T00:08:30;95318.19;;;8.67;47.85
21182;BME280;10749;46.296;7.524;2023-12-29T00:10:56;95315.59;;;8.75;48.01
21182;BME280;10749;46.296;7.524;2023-12-29T00:13:21;95315.59;;;8.75;48.04
21182;BME280;10749;46.296;7.524;2023-12-29T00:15:52;95314.47;;;8.77;47.96
21182;BME280;10749;46.296;7.524;2023-12-29T00:18:18;95315.97;;;8.80;47.99
21182;BME280;10749;46.296;7.524;2023-12-29T00:20:43;95318.94;;;8.77;47.73
21182;BME280;10749;46.296;7.524;2023-12-29T00:23:09;95318.28;;;8.83;47.88
21182;BME280;10749;46.296;7.524;2023-12-29T00:25:37;95325.41;;;8.91;47.69
21182;BME280;10749;46.296;7.524;2023-12-29T00:28:03;95318.69;;;8.96;47.96
21182;BME280;10749;46.296;7.524;2023-12-29T00:30:29;95313.06;;;8.99;47.91
21182;BME280;10749;46.296;7.524;2023-12-29T00:32:57;95298.91;;;9.00;47.81
21182;BME280;10749;46.296;7.524;2023-12-29T00:35:22;95298.75;;;9.02;47.82
21182;BME280;10749;46.296;7.524;2023-12-29T00:37:49;95295.59;;;8.98;47.65
21182;BME280;10749;46.296;7.524;2023-12-29T00:40:15;95294.63;;;9.07;47.91
21182;BME280;10749;46.296;7.524;2023-12-29T00:42:40;95289.88;;;9.11;47.61
21182;BME280;10749;46.296;7.524;2023-12-29T00:45:06;95286.44;;;9.18;47.85
21182;BME280;10749;46.296;7.524;2023-12-29T00:47:31;95291.41;;;9.21;47.77
21182;BME280;10749;46.296;7.524;2023-12-29T00:49:56;95291.06;;;9.24;47.61
21182;BME280;10749;46.296;7.524;2023-12-29T00:52:22;95294.56;;;9.33;47.76
21182;BME280;10749;46.296;7.524;2023-12-29T00:54:47;95291.09;;;9.41;47.55
21182;BME280;10749;46.296;7.524;2023-12-29T00:57:12;95287.81;;;9.39;47.71
21182;BME280;10749;46.296;7.524;2023-12-29T00:59:38;95286.16;;;9.38;47.80
21182;BME280;10749;46.296;7.524;2023-12-29T01:02:06;95276.41;;;9.38;47.50
21182;BME280;10749;46.296;7.524;2023-12-29T01:04:31;95268.31;;;9.32;47.66
21182;BME280;10749;46.296;7.524;2023-12-29T01:06:57;95267.00;;;9.36;47.45
21182;BME280;10749;46.296;7.524;2023-12-29T01:09:22;95273.94;;;9.37;47.36
21182;BME280;10749;46.296;7.524;2023-12-29T01:11:47;95279.03;;;9.30;47.20
21182;BME280;10749;46.296;7.524;2023-12-29T01:14:13;95284.44;;;9.20;47.50
21182;BME280;10749;46.296;7.524;2023-12-29T01:16:39;95271.84;;;8.98;47.25
21182;BME280;10749;46.296;7.524;2023-12-29T01:19:04;95272.44;;;8.84;47.32
21182;BME280;10749;46.296;7.524;2023-12-29T01:21:30;95270.28;;;8.79;47.25
21182;BME280;10749;46.296;7.524;2023-12-29T01:23:59;95269.09;;;8.74;47.22
21182;BME280;10749;46.296;7.524;2023-12-29T01:26:24;95261.31;;;8.64;47.46
21182;BME280;10749;46.296;7.524;2023-12-29T01:28:49;95266.06;;;8.61;47.33
21182;BME280;10749;46.296;7.524;2023-12-29T01:31:15;95270.19;;;8.63;47.28
21182;BME280;10749;46.296;7.524;2023-12-29T01:33:40;95268.72;;;8.61;47.38
21182;BME280;10749;46.296;7.524;2023-12-29T01:36:05;95266.38;;;8.58;47.43
21182;BME280;10749;46.296;7.524;2023-12-29T01:38:31;95262.09;;;8.57;47.29
21182;BME280;10749;46.296;7.524;2023-12-29T01:40:56;95275.06;;;8.50;47.44
21182;BME280;10749;46.296;7.524;2023-12-29T01:43:21;95271.56;;;8.42;47.51
21182;BME280;10749;46.296;7.524;2023-12-29T01:45:47;95280.75;;;8.38;47.73
21182;BME280;10749;46.296;7.524;2023-12-29T01:48:12;95268.56;;;8.37;47.59
21182;BME280;10749;46.296;7.524;2023-12-29T01:50:38;95282.44;;;8.39;47.43
21182;BME280;10749;46.296;7.524;2023-12-29T01:53:05;95283.34;;;8.29;47.61
21182;BME280;10749;46.296;7.524;2023-12-29T01:55:31;95286.03;;;8.38;47.51
21182;BME280;10749;46.296;7.524;2023-12-29T01:57:58;95280.44;;;8.41;47.67
21182;BME280;10749;46.296;7.524;2023-12-29T02:00:23;95279.09;;;8.37;47.65
21182;BME280;10749;46.296;7.524;2023-12-29T02:02:49;95285.72;;;8.41;47.85
21182;BME280;10749;46.296;7.524;2023-12-29T02:05:15;95282.78;;;8.44;47.82
21182;BME280;10749;46.296;7.524;2023-12-29T02:07:41;95282.31;;;8.48;47.86
21182;BME280;10749;46.296;7.524;2023-12-29T02:10:07;95272.91;;;8.46;47.70
21182;BME280;10749;46.296;7.524;2023-12-29T02:12:34;95281.81;;;8.45;47.71
21182;BME280;10749;46.296;7.524;2023-12-29T02:15:02;95283.44;;;8.46;47.67
21182;BME280;10749;46.296;7.524;2023-12-29T02:17:31;95269.13;;;8.48;47.92
21182;BME280;10749;46.296;7.524;2023-12-29T02:20:01;95274.25;;;8.50;47.78
21182;BME280;10749;46.296;7.524;2023-12-29T02:22:26;95264.72;;;8.57;47.69
21182;BME280;10749;46.296;7.524;2023-12-29T02:24:52;95267.72;;;8.62;47.96
21182;BME280;10749;46.296;7.524;2023-12-29T02:27:25;95263.78;;;8.66;47.70
21182;BME280;10749;46.296;7.524;2023-12-29T02:32:42;95250.34;;;8.51;47.83
21182;BME280;10749;46.296;7.524;2023-12-29T02:35:14;95251.50;;;8.49;47.69
21182;BME280;10749;46.296;7.524;2023-12-29T02:37:40;95246.56;;;8.54;47.70
21182;BME280;10749;46.296;7.524;2023-12-29T02:40:07;95242.97;;;8.63;47.83
21182;BME280;10749;46.296;7.524;2023-12-29T02:42:33;95238.22;;;8.66;47.69
21182;BME280;10749;46.296;7.524;2023-12-29T02:44:58;95241.84;;;8.65;47.71
21182;BME280;10749;46.296;7.524;2023-12-29T02:47:23;95244.63;;;8.64;47.79
21182;BME280;10749;46.296;7.524;2023-12-29T02:49:49;95244.44;;;8.57;48.02
21182;BME280;10749;46.296;7.524;2023-12-29T02:52:15;95233.72;;;8.59;47.91
21182;BME280;10749;46.296;7.524;2023-12-29T02:54:40;95234.91;;;8.64;47.83
21182;BME280;10749;46.296;7.524;2023-12-29T02:57:06;95242.66;;;8.66;47.86
21182;BME280;10749;46.296;7.524;2023-12-29T02:59:31;95241.03;;;8.65;47.85
21182;BME280;10749;46.296;7.524;2023-12-29T03:01:56;95234.41;;;8.61;47.68
21182;BME280;10749;46.296;7.524;2023-12-29T03:04:21;95229.25;;;8.51;47.71
21182;BME280;10749;46.296;7.524;2023-12-29T03:06:47;95226.59;;;8.51;47.92
21182;BME280;10749;46.296;7.524;2023-12-29T03:09:12;95226.59;;;8.51;47.76
21182;BME280;10749;46.296;7.524;2023-12-29T03:11:38;95212.41;;;8.44;48.00
21182;BME280;10749;46.296;7.524;2023-12-29T03:14:03;95219.78;;;8.41;47.98
21182;BME280;10749;46.296;7.524;2023-12-29T03:16:28;95212.69;;;8.41;48.14
21182;BME280;10749;46.296;7.524;2023-12-29T03:18:54;95208.25;;;8.42;48.05
21182;BME280;10749;46.296;7.524;2023-12-29T03:21:19;95209.22;;;8.41;48.09
21182;BME280;10749;46.296;7.524;2023-12-29T03:23:44;95203.63;;;8.36;47.86
21182;BME280;10749;46.296;7.524;2023-12-29T03:26:09;95205.25;;;8.37;48.05
21182;BME280;10749;46.296;7.524;2023-12-29T03:28:35;95204.13;;;8.39;48.13
21182;BME280;10749;46.296;7.524;2023-12-29T03:31:00;95191.91;;;8.38;48.28
21182;BME280;10749;46.296;7.524;2023-12-29T03:33:25;95192.06;;;8.37;48.02
21182;BME280;10749;46.296;7.524;2023-12-29T03:35:50;95187.81;;;8.36;48.17
21182;BME280;10749;46.296;7.524;2023-12-29T03:38:16;95185.16;;;8.36;48.13
21182;BME280;10749;46.296;7.524;2023-12-29T03:40:41;95180.03;;;8.34;48.03
21182;BME280;10749;46.296;7.524;2023-12-29T03:43:06;95188.09;;;8.32;48.17
21182;BME280;10749;46.296;7.524;2023-12-29T03:45:32;95188.09;;;8.32;48.48
21182;BME280;10749;46.296;7.524;2023-12-29T03:47:57;95180.34;;;8.31;48.46
21182;BME280;10749;46.296;7.524;2023-12-29T03:50:22;95171.63;;;8.30;48.63
21182;BME280;10749;46.296;7.524;2023-12-29T03:52:48;95174.41;;;8.29;48.38
21182;BME280;10749;46.296;7.524;2023-12-29T03:55:13;95172.06;;;8.26;48.47
21182;BME280;10749;46.296;7.524;2023-12-29T03:57:39;95171.19;;;8.17;48.67
21182;BME280;10749;46.296;7.524;2023-12-29T04:00:05;95172.81;;;8.10;48.64
21182;BME280;10749;46.296;7.524;2023-12-29T04:02:31;95164.03;;;8.02;48.49
21182;BME280;10749;46.296;7.524;2023-12-29T04:04:58;95164.34;;;7.99;48.51
21182;BME280;10749;46.296;7.524;2023-12-29T04:07:26;95165.81;;;8.01;48.56
21182;BME280;10749;46.296;7.524;2023-12-29T04:09:51;95169.16;;;8.03;48.42
21182;BME280;10749;46.296;7.524;2023-12-29T04:12:16;95180.44;;;7.96;48.44
21182;BME280;10749;46.296;7.524;2023-12-29T04:14:42;95183.41;;;7.93;48.75
21182;BME280;10749;46.296;7.524;2023-12-29T04:17:07;95193.94;;;7.93;48.63
21182;BME280;10749;46.296;7.524;2023-12-29T04:19:39;95194.78;;;7.93;48.85
21182;BME280;10749;46.296;7.524;2023-12-29T04:22:05;95184.38;;;7.92;48.99
21182;BME280;10749;46.296;7.524;2023-12-29T04:24:30;95182.56;;;7.92;48.65
21182;BME280;10749;46.296;7.524;2023-12-29T04:26:55;95182.88;;;7.89;48.76
21182;BME280;10749;46.296;7.524;2023-12-29T04:29:20;95181.53;;;7.85;49.00
21182;BME280;10749;46.296;7.524;2023-12-29T04:31:46;95175.59;;;7.83;48.91
21182;BME280;10749;46.296;7.524;2023-12-29T04:34:11;95180.56;;;7.86;48.91
21182;BME280;10749;46.296;7.524;2023-12-29T04:36:36;95180.91;;;7.91;49.14
21182;BME280;10749;46.296;7.524;2023-12-29T04:39:02;95179.47;;;7.97;48.97
21182;BME280;10749;46.296;7.524;2023-12-29T04:41:27;95185.06;;;7.94;48.76
21182;BME280;10749;46.296;7.524;2023-12-29T04:43:52;95184.31;;;7.83;48.96
21182;BME280;10749;46.296;7.524;2023-12-29T04:46:17;95196.56;;;7.67;48.80
21182;BME280;10749;46.296;7.524;2023-12-29T04:48:43;95194.75;;;7.67;48.91
21182;BME280;10749;46.296;7.524;2023-12-29T04:51:08;95198.06;;;7.69;49.17
21182;BME280;10749;46.296;7.524;2023-12-29T04:53:34;95197.91;;;7.71;49.15
21182;BME280;10749;46.296;7.524;2023-12-29T04:55:59;95194.91;;;7.66;49.25
21182;BME280;10749;46.296;7.524;2023-12-29T04:58:24;95186.19;;;7.65;49.22
21182;BME280;10749;46.296;7.524;2023-12-29T05:00:49;95195.56;;;7.68;49.12
21182;BME280;10749;46.296;7.524;2023-12-29T05:03:15;95191.66;;;7.72;49.15
21182;BME280;10749;46.296;7.524;2023-12-29T05:05:40;95176.81;;;7.71;49.38
21182;BME280;10749;46.296;7.524;2023-12-29T05:08:05;95190.41;;;7.84;49.31
21182;BME280;10749;46.296;7.524;2023-12-29T05:10:31;95189.31;;;7.86;49.28
21182;BME280;10749;46.296;7.524;2023-12-29T05:12:59;95198.31;;;7.84;49.19
21182;BME280;10749;46.296;7.524;2023-12-29T05:15:24;95200.59;;;7.79;49.29
21182;BME280;10749;46.296;7.524;2023-12-29T05:17:50;95201.88;;;7.75;49.06
21182;BME280;10749;46.296;7.524;2023-12-29T05:20:15;95207.72;;;7.61;49.17
21182;BME280;10749;46.296;7.524;2023-12-29T05:22:40;95200.19;;;7.66;49.17
21182;BME280;10749;46.296;7.524;2023-12-29T05:25:06;95193.78;;;7.68;49.30
21182;BME280;10749;46.296;7.524;2023-12-29T05:27:31;95186.38;;;7.72;49.14
21182;BME280;10749;46.296;7.524;2023-12-29T05:29:57;95183.16;;;7.78;49.46
21182;BME280;10749;46.296;7.524;2023-12-29T05:32:22;95179.22;;;7.82;49.59
21182;BME280;10749;46.296;7.524;2023-12-29T05:34:47;95182.19;;;7.87;49.26
21182;BME280;10749;46.296;7.524;2023-12-29T05:37:13;95188.94;;;7.81;49.34
21182;BME280;10749;46.296;7.524;2023-12-29T05:39:41;95196.56;;;7.67;49.49
21182;BME280;10749;46.296;7.524;2023-12-29T05:42:07;95205.75;;;7.63;49.19
21182;BME280;10749;46.296;7.524;2023-12-29T05:44:35;95205.91;;;7.43;49.53
21182;BME280;10749;46.296;7.524;2023-12-29T05:47:01;95199.63;;;7.36;49.54
21182;BME280;10749;46.296;7.524;2023-12-29T05:49:26;95200.28;;;7.38;49.73
21182;BME280;10749;46.296;7.524;2023-12-29T05:51:51;95197.19;;;7.43;49.72
21182;BME280;10749;46.296;7.524;2023-12-29T05:54:17;95212.41;;;7.49;49.83
21182;BME280;10749;46.296;7.524;2023-12-29T05:56:43;95214.47;;;7.46;49.72
21182;BME280;10749;46.296;7.524;2023-12-29T05:59:08;95223.13;;;7.38;49.70
21182;BME280;10749;46.296;7.524;2023-12-29T06:01:33;95221.03;;;7.41;49.67
21182;BME280;10749;46.296;7.524;2023-12-29T06:03:59;95224.28;;;7.35;49.67
21182;BME280;10749;46.296;7.524;2023-12-29T06:06:24;95222.31;;;7.37;50.00
21182;BME280;10749;46.296;7.524;2023-12-29T06:08:49;95233.09;;;7.44;49.88
21182;BME280;10749;46.296;7.524;2023-12-29T06:11:15;95234.00;;;7.53;49.79
21182;BME280;10749;46.296;7.524;2023-12-29T06:13:43;95236.00;;;7.59;49.87
21182;BME280;10749;46.296;7.524;2023-12-29T06:16:09;95233.22;;;7.60;49.81
21182;BME280;10749;46.296;7.524;2023-12-29T06:18:34;95237.66;;;7.60;49.88
21182;BME280;10749;46.296;7.524;2023-12-29T06:21:01;95251.06;;;7.49;50.00
21182;BME280;10749;46.296;7.524;2023-12-29T06:23:27;95247.16;;;7.53;49.81
21182;BME280;10749;46.296;7.524;2023-12-29T06:25:52;95259.31;;;7.54;49.69
21182;BME280;10749;46.296;7.524;2023-12-29T06:28:17;95256.03;;;7.52;49.96
21182;BME280;10749;46.296;7.524;2023-12-29T06:30:42;95255.34;;;7.50;49.99
21182;BME280;10749;46.296;7.524;2023-12-29T06:33:08;95264.91;;;7.51;49.90
21182;BME280;10749;46.296;7.524;2023-12-29T06:35:33;95269.19;;;7.52;50.21
21182;BME280;10749;46.296;7.524;2023-12-29T06:37:59;95265.97;;;7.58;50.42
21182;BME280;10749;46.296;7.524;2023-12-29T06:40:24;95274.53;;;7.60;50.22
21182;BME280;10749;46.296;7.524;2023-12-29T06:42:49;95265.16;;;7.57;50.31
21182;BME280;10749;46.296;7.524;2023-12-29T06:45:15;95270.63;;;7.64;50.32
21182;BME280;10749;46.296;7.524;2023-12-29T06:47:40;95268.88;;;7.55;50.10
21182;BME280;10749;46.296;7.524;2023-12-29T06:50:06;95276.28;;;7.51;50.30
21182;BME280;10749;46.296;7.524;2023-12-29T06:52:32;95278.00;;;7.60;50.40
21182;BME280;10749;46.296;7.524;2023-12-29T06:55:02;95273.63;;;7.69;50.45
21182;BME280;10749;46.296;7.524;2023-12-29T06:57:27;95280.56;;;7.70;50.48
21182;BME280;10749;46.296;7.524;2023-12-29T06:59:52;95269.88;;;7.71;50.27
21182;BME280;10749;46.296;7.524;2023-12-29T07:02:18;95281.63;;;7.77;50.50
21182;BME280;10749;46.296;7.524;2023-12-29T07:04:43;95288.81;;;7.75;50.32
21182;BME280;10749;46.296;7.524;2023-12-29T07:07:08;95293.56;;;7.54;50.21
21182;BME280;10749;46.296;7.524;2023-12-29T07:09:34;95288.06;;;7.29;50.32
21182;BME280;10749;46.296;7.524;2023-12-29T07:11:59;95284.25;;;7.24;50.46
21182;BME280;10749;46.296;7.524;2023-12-29T07:14:24;95282.97;;;7.28;50.50
21182;BME280;10749;46.296;7.524;2023-12-29T07:16:50;95283.56;;;7.39;50.24
21182;BME280;10749;46.296;7.524;2023-12-29T07:19:15;95292.31;;;7.40;50.51
21182;BME280;10749;46.296;7.524;2023-12-29T07:21:40;95299.44;;;7.48;50.79
21182;BME280;10749;46.296;7.524;2023-12-29T07:24:06;95293.22;;;7.49;50.53
21182;BME280;10749;46.296;7.524;2023-12-29T07:26:34;95284.41;;;7.40;50.42
21182;BME280;10749;46.296;7.524;2023-12-29T07:28:59;95285.50;;;7.37;50.61
21182;BME280;10749;46.296;7.524;2023-12-29T07:31:25;95288.22;;;7.46;50.71
21182;BME280;10749;46.296;7.524;2023-12-29T07:33:51;95291.75;;;7.54;50.84
21182;BME280;10749;46.296;7.524;2023-12-29T07:36:16;95298.78;;;7.63;50.96
21182;BME280;10749;46.296;7.524;2023-12-29T07:38:42;95281.69;;;7.67;50.76
21182;BME280;10749;46.296;7.524;2023-12-29T07:41:08;95290.28;;;7.69;51.09
21182;BME280;10749;46.296;7.524;2023-12-29T07:43:34;95296.66;;;7.67;51.23
21182;BME280;10749;46.296;7.524;2023-12-29T07:46:01;95304.41;;;7.68;51.36
21182;BME280;10749;46.296;7.524;2023-12-29T07:48:26;95305.78;;;7.72;51.14
21182;BME280;10749;46.296;7.524;2023-12-29T07:50:51;95307.66;;;7.80;51.35
21182;BME280;10749;46.296;7.524;2023-12-29T07:53:17;95315.09;;;7.84;51.10
21182;BME280;10749;46.296;7.524;2023-12-29T07:55:43;95312.84;;;7.89;51.59
21182;BME280;10749;46.296;7.524;2023-12-29T07:58:08;95308.09;;;7.93;51.14
21182;BME280;10749;46.296;7.524;2023-12-29T08:00:36;95315.94;;;7.85;51.18
21182;BME280;10749;46.296;7.524;2023-12-29T08:03:01;95324.16;;;7.82;51.34
21182;BME280;10749;46.296;7.524;2023-12-29T08:05:26;95319.22;;;7.87;51.22
21182;BME280;10749;46.296;7.524;2023-12-29T08:07:51;95314.34;;;7.92;51.11
21182;BME280;10749;46.296;7.524;2023-12-29T08:10:17;95311.56;;;7.94;51.23
21182;BME280;10749;46.296;7.524;2023-12-29T08:12:42;95317.72;;;8.02;51.23
21182;BME280;10749;46.296;7.524;2023-12-29T08:15:08;95322.09;;;8.11;51.23
21182;BME280;10749;46.296;7.524;2023-12-29T08:17:33;95323.97;;;8.19;51.24
21182;BME280;10749;46.296;7.524;2023-12-29T08:19:58;95334.06;;;8.23;51.14
21182;BME280;10749;46.296;7.524;2023-12-29T08:22:24;95332.06;;;8.25;51.25
21182;BME280;10749;46.296;7.524;2023-12-29T08:24:49;95333.31;;;8.13;51.32
21182;BME280;10749;46.296;7.524;2023-12-29T08:27:14;95341.66;;;7.91;51.42
21182;BME280;10749;46.296;7.524;2023-12-29T08:29:47;95333.41;;;7.86;51.49
21182;BME280;10749;46.296;7.524;2023-12-29T08:32:12;95341.47;;;8.02;51.64
21182;BME280;10749;46.296;7.524;2023-12-29T08:34:37;95344.53;;;8.15;51.68
21182;BME280;10749;46.296;7.524;2023-12-29T08:37:03;95343.31;;;8.27;51.42
21182;BME280;10749;46.296;7.524;2023-12-29T08:39:29;95343.88;;;8.31;51.63
21182;BME280;10749;46.296;7.524;2023-12-29T08:41:54;95344.38;;;8.34;51.67
21182;BME280;10749;46.296;7.524;2023-12-29T08:44:19;95346.56;;;8.39;51.48
21182;BME280;10749;46.296;7.524;2023-12-29T08:46:44;95346.47;;;8.49;51.56
21182;BME280;10749;46.296;7.524;2023-12-29T08:49:10;95355.56;;;8.54;51.50
21182;BME280;10749;46.296;7.524;2023-12-29T08:51:35;95355.09;;;8.59;51.84
21182;BME280;10749;46.296;7.524;2023-12-29T08:54:01;95359.41;;;8.60;51.52
21182;BME280;10749;46.296;7.524;2023-12-29T08:56:27;95366.63;;;8.58;51.58
21182;BME280;10749;46.296;7.524;2023-12-29T08:58:54;95360.31;;;8.51;51.79
21182;BME280;10749;46.296;7.524;2023-12-29T09:01:19;95364.56;;;8.44;51.75
21182;BME280;10749;46.296;7.524;2023-12-29T09:03:44;95362.13;;;8.50;51.50
21182;BME280;10749;46.296;7.524;2023-12-29T09:06:10;95362.63;;;8.54;51.88
21182;BME280;10749;46.296;7.524;2023-12-29T09:08:35;95351.44;;;8.52;51.73
21182;BME280;10749;46.296;7.524;2023-12-29T09:11:01;95362.13;;;8.50;51.77
21182;BME280;10749;46.296;7.524;2023-12-29T09:13:27;95365.78;;;8.57;51.46
21182;BME280;10749;46.296;7.524;2023-12-29T09:15:54;95364.34;;;8.63;51.92
21182;BME280;10749;46.296;7.524;2023-12-29T09:18:20;95368.72;;;8.72;51.80
21182;BME280;10749;46.296;7.524;2023-12-29T09:20:45;95367.47;;;8.84;51.84
21182;BME280;10749;46.296;7.524;2023-12-29T09:23:11;95365.38;;;8.96;51.94
21182;BME280;10749;46.296;7.524;2023-12-29T09:25:36;95361.94;;;9.03;51.63
21182;BME280;10749;46.296;7.524;2023-12-29T09:28:02;95363.59;;;9.04;51.41
21182;BME280;10749;46.296;7.524;2023-12-29T09:30:27;95370.56;;;9.05;51.66
21182;BME280;10749;46.296;7.524;2023-12-29T09:32:53;95373.84;;;9.07;51.45
21182;BME280;10749;46.296;7.524;2023-12-29T09:35:18;95380.13;;;9.06;51.52
21182;BME280;10749;46.296;7.524;2023-12-29T09:37:46;95372.50;;;9.03;51.63
21182;BME280;10749;46.296;7.524;2023-12-29T09:40:11;95379.44;;;9.04;51.64
21182;BME280;10749;46.296;7.524;2023-12-29T09:42:37;95371.38;;;9.06;51.49
21182;BME280;10749;46.296;7.524;2023-12-29T09:45:06;95372.53;;;9.11;51.56
21182;BME280;10749;46.296;7.524;2023-12-29T09:47:34;95381.38;;;9.28;51.59
21182;BME280;10749;46.296;7.524;2023-12-29T09:50:03;95381.75;;;9.41;51.72
21182;BME280;10749;46.296;7.524;2023-12-29T09:52:30;95389.25;;;9.54;51.72
21182;BME280;10749;46.296;7.524;2023-12-29T09:54:55;95390.94;;;9.63;51.52
21182;BME280;10749;46.296;7.524;2023-12-29T09:57:21;95392.75;;;9.70;51.68
21182;BME280;10749;46.296;7.524;2023-12-29T09:59:49;95385.69;;;9.79;51.59
21182;BME280;10749;46.296;7.524;2023-12-29T10:02:17;95383.03;;;9.79;51.65
21182;BME280;10749;46.296;7.524;2023-12-29T10:04:44;95385.84;;;9.86;51.49
21182;BME280;10749;46.296;7.524;2023-12-29T10:07:13;95377.44;;;9.90;51.40
21182;BME280;10749;46.296;7.524;2023-12-29T10:09:40;95382.09;;;9.96;51.47
21182;BME280;10749;46.296;7.524;2023-12-29T10:12:09;95372.00;;;10.00;51.27
21182;BME280;10749;46.296;7.524;2023-12-29T10:14:52;95371.66;;;10.03;51.38
21182;BME280;10749;46.296;7.524;2023-12-29T10:17:37;95369.72;;;10.05;51.64
21182;BME280;10749;46.296;7.524;2023-12-29T10:20:30;95372.84;;;10.00;51.39
21182;BME280;10749;46.296;7.524;2023-12-29T10:25:33;95356.28;;;9.90;51.18
21182;BME280;10749;46.296;7.524;2023-12-29T10:27:59;95356.97;;;10.00;51.33
21182;BME280;10749;46.296;7.524;2023-12-29T10:30:24;95354.66;;;10.05;51.43
21182;BME280;10749;46.296;7.524;2023-12-29T10:32:52;95349.38;;;10.05;51.28
21182;BME280;10749;46.296;7.524;2023-12-29T10:35:17;95351.69;;;10.08;51.45
21182;BME280;10749;46.296;7.524;2023-12-29T10:37:43;95352.88;;;10.14;51.34
21182;BME280;10749;46.296;7.524;2023-12-29T10:40:08;95349.75;;;10.18;51.18
21182;BME280;10749;46.296;7.524;2023-12-29T10:42:34;95349.56;;;10.20;51.27
21182;BME280;10749;46.296;7.524;2023-12-29T10:45:07;95344.28;;;10.20;51.24
21182;BME280;10749;46.296;7.524;2023-12-29T10:47:33;95338.16;;;10.28;51.23
21182;BME280;10749;46.296;7.524;2023-12-29T10:50:02;95339.00;;;10.28;51.11
21182;BME280;10749;46.296;7.524;2023-12-29T10:52:29;95341.16;;;10.33;51.03
21182;BME280;10749;46.296;7.524;2023-12-29T10:55:06;95336.34;;;10.36;51.26
21182;BME280;10749;46.296;7.524;2023-12-29T10:57:32;95328.59;;;10.35;51.52
21182;BME280;10749;46.296;7.524;2023-12-29T10:59:57;95319.16;;;10.32;51.03
21182;BME280;10749;46.296;7.524;2023-12-29T11:02:23;95318.31;;;10.40;51.21
21182;BME280;10749;46.296;7.524;2023-12-29T11:04:48;95311.38;;;10.47;51.28
21182;BME280;10749;46.296;7.524;2023-12-29T11:07:15;95307.06;;;10.54;51.34
21182;BME280;10749;46.296;7.524;2023-12-29T11:09:41;95297.63;;;10.59;51.28
21182;BME280;10749;46.296;7.524;2023-12-29T11:12:06;95291.81;;;10.64;51.17
21182;BME280;10749;46.296;7.524;2023-12-29T11:14:32;95289.47;;;10.69;51.28
21182;BME280;10749;46.296;7.524;2023-12-29T11:16:58;95297.75;;;10.74;51.30
21182;BME280;10749;46.296;7.524;2023-12-29T11:19:25;95281.84;;;10.82;50.97
21182;BME280;10749;46.296;7.524;2023-12-29T11:21:54;95283.81;;;10.88;51.26
21182;BME280;10749;46.296;7.524;2023-12-29T11:24:20;95280.97;;;10.90;50.97
21182;BME280;10749;46.296;7.524;2023-12-29T11:26:46;95282.78;;;10.89;51.11
21182;BME280;10749;46.296;7.524;2023-12-29T11:29:12;95273.22;;;10.88;51.20
21182;BME280;10749;46.296;7.524;2023-12-29T11:31:38;95267.22;;;10.94;51.10
21182;BME280;10749;46.296;7.524;2023-12-29T11:34:13;95263.22;;;10.98;51.18
21182;BME280;10749;46.296;7.524;2023-12-29T11:36:45;95268.22;;;11.01;51.09
21182;BME280;10749;46.296;7.524;2023-12-29T11:44:37;95253.97;;;10.94;50.86
21182;BME280;10749;46.296;7.524;2023-12-29T11:47:03;95244.72;;;10.90;50.78
21182;BME280;10749;46.296;7.524;2023-12-29T11:49:57;95242.78;;;10.84;50.91
21182;BME280;10749;46.296;7.524;2023-12-29T11:52:34;95238.84;;;10.80;50.94
21182;BME280;10749;46.296;7.524;2023-12-29T11:55:13;95229.88;;;10.81;50.90
21182;BME280;10749;46.296;7.524;2023-12-29T11:57:40;95226.38;;;10.89;51.04
21182;BME280;10749;46.296;7.524;2023-12-29T12:00:07;95219.72;;;11.01;50.88
21182;BME280;10749;46.296;7.524;2023-12-29T12:02:32;95217.84;;;11.09;51.14
21182;BME280;10749;46.296;7.524;2023-12-29T12:04:58;95216.16;;;11.17;50.89
21182;BME280;10749;46.296;7.524;2023-12-29T12:09:49;95209.50;;;11.21;50.86
21182;BME280;10749;46.296;7.524;2023-12-29T12:12:38;95214.75;;;11.29;50.83
21182;BME280;10749;46.296;7.524;2023-12-29T12:17:52;95206.47;;;11.54;51.19
21182;BME280;10749;46.296;7.524;2023-12-29T12:20:18;95205.94;;;11.59;50.41
21182;BME280;10749;46.296;7.524;2023-12-29T12:22:43;95204.91;;;11.60;50.94
21182;BME280;10749;46.296;7.524;2023-12-29T12:25:11;95200.75;;;11.66;51.16
21182;BME280;10749;46.296;7.524;2023-12-29T12:27:37;95198.00;;;11.59;50.74
21182;BME280;10749;46.296;7.524;2023-12-29T12:30:03;95202.00;;;11.55;50.66
21182;BME280;10749;46.296;7.524;2023-12-29T12:32:29;95196.91;;;11.45;50.86
21182;BME280;10749;46.296;7.524;2023-12-29T12:34:56;95188.09;;;11.30;50.49
21182;BME280;10749;46.296;7.524;2023-12-29T12:37:22;95178.34;;;11.23;50.57
21182;BME280;10749;46.296;7.524;2023-12-29T12:39:48;95186.28;;;11.23;50.78
21182;BME280;10749;46.296;7.524;2023-12-29T12:42:15;95172.41;;;11.21;50.85
21182;BME280;10749;46.296;7.524;2023-12-29T12:44:42;95179.38;;;11.22;50.79
21182;BME280;10749;46.296;7.524;2023-12-29T12:47:15;95171.41;;;11.22;50.68
21182;BME280;10749;46.296;7.524;2023-12-29T12:49:41;95171.22;;;11.23;50.74
21182;BME280;10749;46.296;7.524;2023-12-29T12:52:07;95160.75;;;11.30;50.60
21182;BME280;10749;46.296;7.524;2023-12-29T12:54:33;95154.75;;;11.36;50.52
21182;BME280;10749;46.296;7.524;2023-12-29T12:56:58;95167.59;;;11.47;50.62
21182;BME280;10749;46.296;7.524;2023-12-29T12:59:23;95160.28;;;11.49;50.47
21182;BME280;10749;46.296;7.524;2023-12-29T13:01:49;95155.06;;;11.55;50.74
21182;BME280;10749;46.296;7.524;2023-12-29T13:04:14;95155.47;;;11.75;50.64
21182;BME280;10749;46.296;7.524;2023-12-29T13:06:41;95155.69;;;11.88;50.73
21182;BME280;10749;46.296;7.524;2023-12-29T13:09:08;95154.31;;;11.92;50.53
21182;BME280;10749;46.296;7.524;2023-12-29T13:11:37;95139.84;;;11.95;50.62
21182;BME280;10749;46.296;7.524;2023-12-29T13:14:02;95145.78;;;11.97;50.66
21182;BME280;10749;46.296;7.524;2023-12-29T13:16:31;95138.03;;;11.95;50.65
21182;BME280;10749;46.296;7.524;2023-12-29T13:18:57;95134.72;;;11.93;50.36